sensor_id;sensor_type;location;lat;lon;timestamp;P1;durP1;ratioP1;P2;durP2;ratioP2
39890;SDS011;25564;53.312;9.790;2023-10-19T00:02:19;7.77;;;4.73;;
39890;SDS011;25564;53.312;9.790;2023-10-19T00:04:51;9.93;;;4.47;;
39890;SDS011;25564;53.312;9.790;2023-10-19T00:07:22;11.43;;;5.40;;
39890;SDS011;25564;53.312;9.790;2023-10-19T00:09:53;10.73;;;5.23;;
39890;SDS011;25564;53.312;9.790;2023-10-19T00:12:26;12.33;;;6.20;;
39890;SDS011;25564;53.312;9.790;2023-10-19T00:14:58;8.87;;;5.10;;
39890;SDS011;25564;53.312;9.790;2023-10-19T00:17:30;10.90;;;5.70;;
39890;SDS011;25564;53.312;9.790;2023-10-19T00:20:04;10.83;;;5.87;;
39890;SDS011;25564;53.312;9.790;2023-10-19T00:22:55;8.70;;;5.03;;
39890;SDS011;25564;53.312;9.790;2023-10-19T00:25:28;9.37;;;5.77;;
39890;SDS011;25564;53.312;9.790;2023-10-19T00:28:00;9.77;;;5.17;;
39890;SDS011;25564;53.312;9.790;2023-10-19T00:30:35;9.77;;;5.17;;
39890;SDS011;25564;53.312;9.790;2023-10-19T00:33:07;9.27;;;5.03;;
39890;SDS011;25564;53.312;9.790;2023-10-19T00:35:47;11.63;;;6.20;;
39890;SDS011;25564;53.312;9.790;2023-10-19T00:38:30;12.93;;;5.30;;
39890;SDS011;25564;53.312;9.790;2023-10-19T00:41:10;8.77;;;4.90;;
39890;SDS011;25564;53.312;9.790;2023-10-19T00:43:42;8.00;;;5.00;;
39890;SDS011;25564;53.312;9.790;2023-10-19T00:48:57;9.20;;;5.43;;
39890;SDS011;25564;53.312;9.790;2023-10-19T00:51:35;8.50;;;5.40;;
39890;SDS011;25564;53.312;9.790;2023-10-19T00:54:16;12.40;;;6.00;;
39890;SDS011;25564;53.312;9.790;2023-10-19T00:56:57;11.90;;;5.93;;
39890;SDS011;25564;53.312;9.790;2023-10-19T00:59:35;10.00;;;5.80;;
39890;SDS011;25564;53.312;9.790;2023-10-19T01:02:15;12.57;;;5.67;;
39890;SDS011;25564;53.312;9.790;2023-10-19T01:05:00;11.23;;;5.23;;
39890;SDS011;25564;53.312;9.790;2023-10-19T01:07:36;11.13;;;5.80;;
39890;SDS011;25564;53.312;9.790;2023-10-19T01:10:10;13.00;;;5.53;;
39890;SDS011;25564;53.312;9.790;2023-10-19T01:12:52;11.13;;;5.90;;
39890;SDS011;25564;53.312;9.790;2023-10-19T01:15:23;12.17;;;5.47;;
39890;SDS011;25564;53.312;9.790;2023-10-19T01:18:00;7.70;;;5.47;;
39890;SDS011;25564;53.312;9.790;2023-10-19T01:20:33;10.40;;;5.60;;
39890;SDS011;25564;53.312;9.790;2023-10-19T01:23:19;9.63;;;5.75;;
39890;SDS011;25564;53.312;9.790;2023-10-19T01:25:58;11.23;;;5.93;;
39890;SDS011;25564;53.312;9.790;2023-10-19T01:28:31;9.70;;;5.67;;
39890;SDS011;25564;53.312;9.790;2023-10-19T01:31:16;10.67;;;5.83;;
39890;SDS011;25564;53.312;9.790;2023-10-19T01:34:00;10.67;;;5.70;;
39890;SDS011;25564;53.312;9.790;2023-10-19T01:36:34;10.17;;;5.37;;
39890;SDS011;25564;53.312;9.790;2023-10-19T01:39:25;9.60;;;5.87;;
39890;SDS011;25564;53.312;9.790;2023-10-19T01:41:57;10.83;;;5.80;;
39890;SDS011;25564;53.312;9.790;2023-10-19T01:44:28;12.40;;;6.30;;
39890;SDS011;25564;53.312;9.790;2023-10-19T01:47:00;10.73;;;6.00;;
39890;SDS011;25564;53.312;9.790;2023-10-19T01:49:32;11.53;;;5.70;;
39890;SDS011;25564;53.312;9.790;2023-10-19T01:52:03;10.17;;;5.97;;
39890;SDS011;25564;53.312;9.790;2023-10-19T01:54:35;13.30;;;6.47;;
39890;SDS011;25564;53.312;9.790;2023-10-19T01:57:09;13.40;;;6.53;;
39890;SDS011;25564;53.312;9.790;2023-10-19T01:59:41;11.60;;;6.07;;
39890;SDS011;25564;53.312;9.790;2023-10-19T02:02:15;12.17;;;6.30;;
39890;SDS011;25564;53.312;9.790;2023-10-19T02:04:46;11.07;;;6.17;;
39890;SDS011;25564;53.312;9.790;2023-10-19T02:07:20;11.10;;;6.17;;
39890;SDS011;25564;53.312;9.790;2023-10-19T02:09:52;12.47;;;6.47;;
39890;SDS011;25564;53.312;9.790;2023-10-19T02:12:24;12.50;;;7.17;;
39890;SDS011;25564;53.312;9.790;2023-10-19T02:14:55;9.80;;;6.23;;
39890;SDS011;25564;53.312;9.790;2023-10-19T02:17:27;10.83;;;5.67;;
39890;SDS011;25564;53.312;9.790;2023-10-19T02:19:58;13.10;;;6.27;;
39890;SDS011;25564;53.312;9.790;2023-10-19T02:22:30;9.90;;;6.23;;
39890;SDS011;25564;53.312;9.790;2023-10-19T02:25:02;12.60;;;6.70;;
39890;SDS011;25564;53.312;9.790;2023-10-19T02:27:37;15.43;;;6.93;;
39890;SDS011;25564;53.312;9.790;2023-10-19T02:30:09;11.33;;;6.47;;
39890;SDS011;25564;53.312;9.790;2023-10-19T02:32:42;15.93;;;6.60;;
39890;SDS011;25564;53.312;9.790;2023-10-19T02:35:14;14.33;;;6.83;;
39890;SDS011;25564;53.312;9.790;2023-10-19T02:37:46;10.47;;;6.40;;
39890;SDS011;25564;53.312;9.790;2023-10-19T02:40:17;11.20;;;6.50;;
39890;SDS011;25564;53.312;9.790;2023-10-19T02:42:52;13.60;;;6.97;;
39890;SDS011;25564;53.312;9.790;2023-10-19T02:45:24;14.20;;;7.00;;
39890;SDS011;25564;53.312;9.790;2023-10-19T02:47:57;13.93;;;6.90;;
39890;SDS011;25564;53.312;9.790;2023-10-19T02:50:29;10.90;;;6.90;;
39890;SDS011;25564;53.312;9.790;2023-10-19T02:53:01;21.20;;;7.93;;
39890;SDS011;25564;53.312;9.790;2023-10-19T02:55:32;11.43;;;6.73;;
39890;SDS011;25564;53.312;9.790;2023-10-19T02:58:03;12.70;;;6.80;;
39890;SDS011;25564;53.312;9.790;2023-10-19T03:00:36;15.50;;;7.20;;
39890;SDS011;25564;53.312;9.790;2023-10-19T03:03:09;15.70;;;7.07;;
39890;SDS011;25564;53.312;9.790;2023-10-19T03:05:42;12.53;;;7.00;;
39890;SDS011;25564;53.312;9.790;2023-10-19T03:08:13;15.57;;;8.13;;
39890;SDS011;25564;53.312;9.790;2023-10-19T03:10:46;14.73;;;7.53;;
39890;SDS011;25564;53.312;9.790;2023-10-19T03:13:18;13.13;;;6.90;;
39890;SDS011;25564;53.312;9.790;2023-10-19T03:15:50;15.80;;;7.80;;
39890;SDS011;25564;53.312;9.790;2023-10-19T03:18:24;15.50;;;8.33;;
39890;SDS011;25564;53.312;9.790;2023-10-19T03:20:57;14.53;;;7.60;;
39890;SDS011;25564;53.312;9.790;2023-10-19T03:23:29;15.77;;;8.03;;
39890;SDS011;25564;53.312;9.790;2023-10-19T03:26:00;10.73;;;7.30;;
39890;SDS011;25564;53.312;9.790;2023-10-19T03:28:50;15.87;;;8.03;;
39890;SDS011;25564;53.312;9.790;2023-10-19T03:31:26;15.02;;;7.70;;
39890;SDS011;25564;53.312;9.790;2023-10-19T03:33:58;16.43;;;8.70;;
39890;SDS011;25564;53.312;9.790;2023-10-19T03:36:30;20.07;;;7.87;;
39890;SDS011;25564;53.312;9.790;2023-10-19T03:39:04;15.93;;;7.30;;
39890;SDS011;25564;53.312;9.790;2023-10-19T03:41:44;16.93;;;8.83;;
39890;SDS011;25564;53.312;9.790;2023-10-19T03:44:19;16.83;;;9.03;;
39890;SDS011;25564;53.312;9.790;2023-10-19T03:46:55;16.63;;;8.60;;
39890;SDS011;25564;53.312;9.790;2023-10-19T03:49:35;15.23;;;7.93;;
39890;SDS011;25564;53.312;9.790;2023-10-19T03:52:10;12.47;;;7.50;;
39890;SDS011;25564;53.312;9.790;2023-10-19T03:54:41;14.60;;;8.03;;
39890;SDS011;25564;53.312;9.790;2023-10-19T03:57:14;16.80;;;8.40;;
39890;SDS011;25564;53.312;9.790;2023-10-19T03:59:51;16.40;;;7.60;;
39890;SDS011;25564;53.312;9.790;2023-10-19T04:02:27;13.53;;;9.00;;
39890;SDS011;25564;53.312;9.790;2023-10-19T04:05:09;15.97;;;8.23;;
39890;SDS011;25564;53.312;9.790;2023-10-19T04:07:46;15.90;;;8.30;;
39890;SDS011;25564;53.312;9.790;2023-10-19T04:10:21;13.93;;;8.03;;
39890;SDS011;25564;53.312;9.790;2023-10-19T04:13:05;16.17;;;7.47;;
39890;SDS011;25564;53.312;9.790;2023-10-19T04:15:40;15.98;;;7.70;;
39890;SDS011;25564;53.312;9.790;2023-10-19T04:18:13;16.63;;;8.37;;
39890;SDS011;25564;53.312;9.790;2023-10-19T04:20:44;18.50;;;9.00;;
39890;SDS011;25564;53.312;9.790;2023-10-19T04:23:22;15.40;;;7.90;;
39890;SDS011;25564;53.312;9.790;2023-10-19T04:25:58;17.97;;;9.23;;
39890;SDS011;25564;53.312;9.790;2023-10-19T04:28:30;26.17;;;9.63;;
39890;SDS011;25564;53.312;9.790;2023-10-19T04:31:02;15.53;;;8.10;;
39890;SDS011;25564;53.312;9.790;2023-10-19T04:33:37;15.25;;;8.15;;
39890;SDS011;25564;53.312;9.790;2023-10-19T04:36:09;22.37;;;9.43;;
39890;SDS011;25564;53.312;9.790;2023-10-19T04:38:42;17.90;;;8.53;;
39890;SDS011;25564;53.312;9.790;2023-10-19T04:41:15;17.07;;;8.90;;
39890;SDS011;25564;53.312;9.790;2023-10-19T04:43:46;15.60;;;8.07;;
39890;SDS011;25564;53.312;9.790;2023-10-19T04:46:21;16.27;;;7.80;;
39890;SDS011;25564;53.312;9.790;2023-10-19T04:48:53;22.20;;;8.80;;
39890;SDS011;25564;53.312;9.790;2023-10-19T04:51:25;16.30;;;8.83;;
39890;SDS011;25564;53.312;9.790;2023-10-19T04:53:56;20.50;;;8.60;;
39890;SDS011;25564;53.312;9.790;2023-10-19T04:56:27;19.20;;;9.43;;
39890;SDS011;25564;53.312;9.790;2023-10-19T04:58:59;15.70;;;8.67;;
39890;SDS011;25564;53.312;9.790;2023-10-19T05:01:30;15.03;;;6.57;;
39890;SDS011;25564;53.312;9.790;2023-10-19T05:04:05;18.73;;;8.30;;
39890;SDS011;25564;53.312;9.790;2023-10-19T05:06:36;17.10;;;8.17;;
39890;SDS011;25564;53.312;9.790;2023-10-19T05:09:09;15.73;;;9.07;;
39890;SDS011;25564;53.312;9.790;2023-10-19T05:11:40;17.53;;;8.93;;
39890;SDS011;25564;53.312;9.790;2023-10-19T05:14:14;14.90;;;8.67;;
39890;SDS011;25564;53.312;9.790;2023-10-19T05:16:46;15.10;;;8.73;;
39890;SDS011;25564;53.312;9.790;2023-10-19T05:19:17;18.73;;;9.53;;
39890;SDS011;25564;53.312;9.790;2023-10-19T05:21:49;20.23;;;9.60;;
39890;SDS011;25564;53.312;9.790;2023-10-19T05:24:20;17.40;;;8.67;;
39890;SDS011;25564;53.312;9.790;2023-10-19T05:26:52;18.10;;;9.63;;
39890;SDS011;25564;53.312;9.790;2023-10-19T05:29:24;19.43;;;9.67;;
39890;SDS011;25564;53.312;9.790;2023-10-19T05:31:56;19.60;;;9.83;;
39890;SDS011;25564;53.312;9.790;2023-10-19T05:34:29;15.47;;;8.87;;
39890;SDS011;25564;53.312;9.790;2023-10-19T05:37:03;18.80;;;9.10;;
39890;SDS011;25564;53.312;9.790;2023-10-19T05:39:36;20.00;;;9.23;;
39890;SDS011;25564;53.312;9.790;2023-10-19T05:42:08;18.87;;;9.33;;
39890;SDS011;25564;53.312;9.790;2023-10-19T05:44:39;19.50;;;9.87;;
39890;SDS011;25564;53.312;9.790;2023-10-19T05:47:11;21.73;;;9.77;;
39890;SDS011;25564;53.312;9.790;2023-10-19T05:49:42;15.43;;;8.47;;
39890;SDS011;25564;53.312;9.790;2023-10-19T05:52:14;18.93;;;8.00;;
39890;SDS011;25564;53.312;9.790;2023-10-19T05:54:46;18.63;;;9.10;;
39890;SDS011;25564;53.312;9.790;2023-10-19T05:57:17;17.13;;;9.37;;
39890;SDS011;25564;53.312;9.790;2023-10-19T05:59:49;21.40;;;9.80;;
39890;SDS011;25564;53.312;9.790;2023-10-19T06:02:21;17.57;;;8.67;;
39890;SDS011;25564;53.312;9.790;2023-10-19T06:05:03;20.20;;;9.90;;
39890;SDS011;25564;53.312;9.790;2023-10-19T06:07:37;19.53;;;9.00;;
39890;SDS011;25564;53.312;9.790;2023-10-19T06:10:10;22.03;;;8.90;;
39890;SDS011;25564;53.312;9.790;2023-10-19T06:12:47;19.30;;;9.03;;
39890;SDS011;25564;53.312;9.790;2023-10-19T06:15:21;16.83;;;9.43;;
39890;SDS011;25564;53.312;9.790;2023-10-19T06:17:55;20.37;;;9.40;;
39890;SDS011;25564;53.312;9.790;2023-10-19T06:20:27;18.30;;;8.97;;
39890;SDS011;25564;53.312;9.790;2023-10-19T06:22:59;16.10;;;7.17;;
39890;SDS011;25564;53.312;9.790;2023-10-19T06:25:37;19.17;;;10.90;;
39890;SDS011;25564;53.312;9.790;2023-10-19T06:28:08;18.83;;;9.37;;
39890;SDS011;25564;53.312;9.790;2023-10-19T06:30:42;20.13;;;8.93;;
39890;SDS011;25564;53.312;9.790;2023-10-19T06:33:13;15.00;;;8.03;;
39890;SDS011;25564;53.312;9.790;2023-10-19T06:35:45;19.27;;;9.43;;
39890;SDS011;25564;53.312;9.790;2023-10-19T06:38:16;17.83;;;9.30;;
39890;SDS011;25564;53.312;9.790;2023-10-19T06:40:49;17.27;;;9.00;;
39890;SDS011;25564;53.312;9.790;2023-10-19T06:43:21;21.23;;;8.77;;
39890;SDS011;25564;53.312;9.790;2023-10-19T06:45:55;16.97;;;9.13;;
39890;SDS011;25564;53.312;9.790;2023-10-19T06:48:26;14.50;;;7.43;;
39890;SDS011;25564;53.312;9.790;2023-10-19T06:50:58;20.43;;;9.57;;
39890;SDS011;25564;53.312;9.790;2023-10-19T06:53:31;19.60;;;8.63;;
39890;SDS011;25564;53.312;9.790;2023-10-19T06:56:04;16.97;;;8.60;;
39890;SDS011;25564;53.312;9.790;2023-10-19T06:58:35;18.93;;;9.23;;
39890;SDS011;25564;53.312;9.790;2023-10-19T07:01:07;18.70;;;8.67;;
39890;SDS011;25564;53.312;9.790;2023-10-19T07:03:39;18.47;;;9.40;;
39890;SDS011;25564;53.312;9.790;2023-10-19T07:06:11;21.00;;;8.83;;
39890;SDS011;25564;53.312;9.790;2023-10-19T07:08:45;19.53;;;10.20;;
39890;SDS011;25564;53.312;9.790;2023-10-19T07:11:17;18.07;;;9.10;;
39890;SDS011;25564;53.312;9.790;2023-10-19T07:13:49;16.87;;;8.73;;
39890;SDS011;25564;53.312;9.790;2023-10-19T07:16:20;17.63;;;9.07;;
39890;SDS011;25564;53.312;9.790;2023-10-19T07:18:52;18.03;;;8.70;;
39890;SDS011;25564;53.312;9.790;2023-10-19T07:21:24;17.37;;;8.67;;
39890;SDS011;25564;53.312;9.790;2023-10-19T07:23:56;20.17;;;9.33;;
39890;SDS011;25564;53.312;9.790;2023-10-19T07:26:32;20.60;;;9.52;;
39890;SDS011;25564;53.312;9.790;2023-10-19T07:29:12;19.03;;;8.97;;
39890;SDS011;25564;53.312;9.790;2023-10-19T07:31:46;17.77;;;9.33;;
39890;SDS011;25564;53.312;9.790;2023-10-19T07:34:17;17.30;;;9.00;;
39890;SDS011;25564;53.312;9.790;2023-10-19T07:36:49;19.43;;;9.77;;
39890;SDS011;25564;53.312;9.790;2023-10-19T07:39:21;14.90;;;8.47;;
39890;SDS011;25564;53.312;9.790;2023-10-19T07:41:54;21.90;;;8.63;;
39890;SDS011;25564;53.312;9.790;2023-10-19T07:44:25;17.70;;;8.30;;
39890;SDS011;25564;53.312;9.790;2023-10-19T07:46:56;17.37;;;9.50;;
39890;SDS011;25564;53.312;9.790;2023-10-19T07:49:28;17.67;;;8.20;;
39890;SDS011;25564;53.312;9.790;2023-10-19T07:52:00;19.47;;;9.80;;
39890;SDS011;25564;53.312;9.790;2023-10-19T07:54:32;16.80;;;9.00;;
39890;SDS011;25564;53.312;9.790;2023-10-19T07:57:04;18.13;;;9.57;;
39890;SDS011;25564;53.312;9.790;2023-10-19T07:59:39;19.43;;;8.77;;
39890;SDS011;25564;53.312;9.790;2023-10-19T08:02:10;18.90;;;9.60;;
39890;SDS011;25564;53.312;9.790;2023-10-19T08:04:42;21.20;;;9.40;;
39890;SDS011;25564;53.312;9.790;2023-10-19T08:07:13;16.43;;;8.83;;
39890;SDS011;25564;53.312;9.790;2023-10-19T08:09:44;19.57;;;9.50;;
39890;SDS011;25564;53.312;9.790;2023-10-19T08:12:16;20.07;;;9.27;;
39890;SDS011;25564;53.312;9.790;2023-10-19T08:14:48;20.07;;;10.50;;
39890;SDS011;25564;53.312;9.790;2023-10-19T08:17:19;15.87;;;8.50;;
39890;SDS011;25564;53.312;9.790;2023-10-19T08:19:51;16.07;;;8.57;;
39890;SDS011;25564;53.312;9.790;2023-10-19T08:22:22;19.53;;;9.97;;
39890;SDS011;25564;53.312;9.790;2023-10-19T08:24:54;21.57;;;9.63;;
39890;SDS011;25564;53.312;9.790;2023-10-19T08:27:26;19.20;;;9.53;;
39890;SDS011;25564;53.312;9.790;2023-10-19T08:29:57;19.20;;;10.30;;
39890;SDS011;25564;53.312;9.790;2023-10-19T08:32:28;17.97;;;9.40;;
39890;SDS011;25564;53.312;9.790;2023-10-19T08:35:03;21.10;;;10.97;;
39890;SDS011;25564;53.312;9.790;2023-10-19T08:37:40;18.40;;;10.17;;
39890;SDS011;25564;53.312;9.790;2023-10-19T08:40:12;21.33;;;9.87;;
39890;SDS011;25564;53.312;9.790;2023-10-19T08:42:47;21.67;;;10.20;;
39890;SDS011;25564;53.312;9.790;2023-10-19T08:45:22;17.83;;;10.40;;
39890;SDS011;25564;53.312;9.790;2023-10-19T08:47:55;18.30;;;10.10;;
39890;SDS011;25564;53.312;9.790;2023-10-19T08:50:29;19.70;;;10.37;;
39890;SDS011;25564;53.312;9.790;2023-10-19T08:53:02;21.20;;;9.20;;
39890;SDS011;25564;53.312;9.790;2023-10-19T08:55:35;19.27;;;9.73;;
39890;SDS011;25564;53.312;9.790;2023-10-19T08:58:20;21.97;;;10.13;;
39890;SDS011;25564;53.312;9.790;2023-10-19T09:00:53;17.20;;;8.87;;
39890;SDS011;25564;53.312;9.790;2023-10-19T09:03:28;20.47;;;9.87;;
39890;SDS011;25564;53.312;9.790;2023-10-19T09:06:00;20.23;;;10.03;;
39890;SDS011;25564;53.312;9.790;2023-10-19T09:08:33;18.60;;;10.23;;
39890;SDS011;25564;53.312;9.790;2023-10-19T09:11:11;16.97;;;9.90;;
39890;SDS011;25564;53.312;9.790;2023-10-19T09:13:48;21.83;;;10.87;;
39890;SDS011;25564;53.312;9.790;2023-10-19T09:16:21;21.43;;;10.13;;
39890;SDS011;25564;53.312;9.790;2023-10-19T09:18:53;18.57;;;9.10;;
39890;SDS011;25564;53.312;9.790;2023-10-19T09:21:25;18.87;;;8.80;;
39890;SDS011;25564;53.312;9.790;2023-10-19T09:23:56;19.80;;;10.17;;
39890;SDS011;25564;53.312;9.790;2023-10-19T09:26:28;16.83;;;9.40;;
39890;SDS011;25564;53.312;9.790;2023-10-19T09:29:01;24.50;;;8.97;;
39890;SDS011;25564;53.312;9.790;2023-10-19T09:31:32;17.93;;;10.13;;
39890;SDS011;25564;53.312;9.790;2023-10-19T09:34:04;17.40;;;8.83;;
39890;SDS011;25564;53.312;9.790;2023-10-19T09:36:37;15.83;;;8.83;;
39890;SDS011;25564;53.312;9.790;2023-10-19T09:39:08;18.97;;;8.73;;
39890;SDS011;25564;53.312;9.790;2023-10-19T09:41:44;18.27;;;8.80;;
39890;SDS011;25564;53.312;9.790;2023-10-19T09:44:16;19.37;;;9.37;;
39890;SDS011;25564;53.312;9.790;2023-10-19T09:46:53;18.13;;;9.57;;
39890;SDS011;25564;53.312;9.790;2023-10-19T09:49:28;20.10;;;9.55;;
39890;SDS011;25564;53.312;9.790;2023-10-19T09:52:00;21.03;;;9.73;;
39890;SDS011;25564;53.312;9.790;2023-10-19T09:54:42;19.90;;;9.70;;
39890;SDS011;25564;53.312;9.790;2023-10-19T10:00:14;19.77;;;10.50;;
39890;SDS011;25564;53.312;9.790;2023-10-19T10:02:46;19.00;;;9.53;;
39890;SDS011;25564;53.312;9.790;2023-10-19T10:10:49;16.90;;;9.47;;
39890;SDS011;25564;53.312;9.790;2023-10-19T10:16:01;18.17;;;10.57;;
39890;SDS011;25564;53.312;9.790;2023-10-19T10:18:35;18.97;;;10.13;;
39890;SDS011;25564;53.312;9.790;2023-10-19T10:21:16;18.40;;;9.83;;
39890;SDS011;25564;53.312;9.790;2023-10-19T10:23:55;19.20;;;10.03;;
39890;SDS011;25564;53.312;9.790;2023-10-19T10:26:56;19.30;;;9.93;;
39890;SDS011;25564;53.312;9.790;2023-10-19T10:29:29;16.67;;;9.70;;
39890;SDS011;25564;53.312;9.790;2023-10-19T10:32:02;19.17;;;9.50;;
39890;SDS011;25564;53.312;9.790;2023-10-19T10:37:09;16.70;;;8.83;;
39890;SDS011;25564;53.312;9.790;2023-10-19T10:39:42;18.43;;;10.07;;
39890;SDS011;25564;53.312;9.790;2023-10-19T10:42:16;21.40;;;10.53;;
39890;SDS011;25564;53.312;9.790;2023-10-19T10:44:48;18.63;;;9.87;;
39890;SDS011;25564;53.312;9.790;2023-10-19T10:47:23;23.60;;;11.25;;
39890;SDS011;25564;53.312;9.790;2023-10-19T10:50:00;23.03;;;10.97;;
39890;SDS011;25564;53.312;9.790;2023-10-19T10:52:32;20.30;;;10.57;;
39890;SDS011;25564;53.312;9.790;2023-10-19T10:55:09;18.47;;;11.00;;
39890;SDS011;25564;53.312;9.790;2023-10-19T10:57:43;21.93;;;11.10;;
39890;SDS011;25564;53.312;9.790;2023-10-19T11:00:15;21.93;;;11.60;;
39890;SDS011;25564;53.312;9.790;2023-10-19T11:02:47;16.67;;;9.10;;
39890;SDS011;25564;53.312;9.790;2023-10-19T11:05:30;19.63;;;10.33;;
39890;SDS011;25564;53.312;9.790;2023-10-19T11:08:07;25.60;;;11.57;;
39890;SDS011;25564;53.312;9.790;2023-10-19T11:10:52;19.40;;;11.37;;
39890;SDS011;25564;53.312;9.790;2023-10-19T11:13:25;23.57;;;11.63;;
39890;SDS011;25564;53.312;9.790;2023-10-19T11:15:56;22.43;;;11.97;;
39890;SDS011;25564;53.312;9.790;2023-10-19T11:21:10;22.17;;;11.60;;
39890;SDS011;25564;53.312;9.790;2023-10-19T11:23:49;20.50;;;11.13;;
39890;SDS011;25564;53.312;9.790;2023-10-19T11:26:24;24.57;;;12.40;;
39890;SDS011;25564;53.312;9.790;2023-10-19T11:28:58;21.50;;;11.87;;
39890;SDS011;25564;53.312;9.790;2023-10-19T11:31:35;23.40;;;10.90;;
39890;SDS011;25564;53.312;9.790;2023-10-19T11:34:10;21.38;;;11.88;;
39890;SDS011;25564;53.312;9.790;2023-10-19T11:36:52;24.97;;;12.57;;
39890;SDS011;25564;53.312;9.790;2023-10-19T11:39:27;25.90;;;12.10;;
39890;SDS011;25564;53.312;9.790;2023-10-19T11:42:00;21.03;;;11.03;;
39890;SDS011;25564;53.312;9.790;2023-10-19T11:44:31;21.53;;;10.47;;
39890;SDS011;25564;53.312;9.790;2023-10-19T11:47:03;18.37;;;10.43;;
39890;SDS011;25564;53.312;9.790;2023-10-19T11:49:34;24.50;;;11.33;;
39890;SDS011;25564;53.312;9.790;2023-10-19T11:52:06;19.00;;;11.07;;
39890;SDS011;25564;53.312;9.790;2023-10-19T11:54:38;19.53;;;10.73;;
39890;SDS011;25564;53.312;9.790;2023-10-19T11:57:10;22.00;;;11.70;;
39890;SDS011;25564;53.312;9.790;2023-10-19T11:59:41;20.20;;;10.90;;
39890;SDS011;25564;53.312;9.790;2023-10-19T12:02:13;18.17;;;9.63;;
39890;SDS011;25564;53.312;9.790;2023-10-19T12:04:50;18.77;;;10.77;;
39890;SDS011;25564;53.312;9.790;2023-10-19T12:07:21;17.33;;;9.90;;
39890;SDS011;25564;53.312;9.790;2023-10-19T12:09:53;19.37;;;10.10;;
39890;SDS011;25564;53.312;9.790;2023-10-19T12:12:24;21.93;;;10.63;;
39890;SDS011;25564;53.312;9.790;2023-10-19T12:14:55;19.73;;;10.80;;
39890;SDS011;25564;53.312;9.790;2023-10-19T12:17:29;16.93;;;8.80;;
39890;SDS011;25564;53.312;9.790;2023-10-19T12:20:01;19.70;;;10.53;;
39890;SDS011;25564;53.312;9.790;2023-10-19T12:22:33;20.27;;;9.83;;
39890;SDS011;25564;53.312;9.790;2023-10-19T12:25:10;19.77;;;10.63;;
39890;SDS011;25564;53.312;9.790;2023-10-19T12:27:41;20.30;;;10.07;;
39890;SDS011;25564;53.312;9.790;2023-10-19T12:30:13;16.27;;;8.70;;
39890;SDS011;25564;53.312;9.790;2023-10-19T12:32:57;17.60;;;9.97;;
39890;SDS011;25564;53.312;9.790;2023-10-19T12:35:31;17.27;;;10.27;;
39890;SDS011;25564;53.312;9.790;2023-10-19T12:38:21;18.57;;;9.33;;
39890;SDS011;25564;53.312;9.790;2023-10-19T12:40:52;16.43;;;8.87;;
39890;SDS011;25564;53.312;9.790;2023-10-19T12:43:25;20.17;;;10.70;;
39890;SDS011;25564;53.312;9.790;2023-10-19T12:45:56;17.17;;;9.43;;
39890;SDS011;25564;53.312;9.790;2023-10-19T12:48:29;16.47;;;9.33;;
39890;SDS011;25564;53.312;9.790;2023-10-19T12:51:04;15.70;;;9.83;;
39890;SDS011;25564;53.312;9.790;2023-10-19T12:53:38;20.17;;;9.73;;
39890;SDS011;25564;53.312;9.790;2023-10-19T12:56:12;18.27;;;9.33;;
39890;SDS011;25564;53.312;9.790;2023-10-19T12:58:43;17.00;;;9.23;;
39890;SDS011;25564;53.312;9.790;2023-10-19T13:01:15;19.30;;;10.03;;
39890;SDS011;25564;53.312;9.790;2023-10-19T13:03:50;19.60;;;9.32;;
39890;SDS011;25564;53.312;9.790;2023-10-19T13:06:22;19.93;;;10.60;;
39890;SDS011;25564;53.312;9.790;2023-10-19T13:09:00;18.87;;;9.63;;
39890;SDS011;25564;53.312;9.790;2023-10-19T13:11:32;19.10;;;10.83;;
39890;SDS011;25564;53.312;9.790;2023-10-19T13:14:03;17.10;;;9.53;;
39890;SDS011;25564;53.312;9.790;2023-10-19T13:16:37;17.67;;;9.23;;
39890;SDS011;25564;53.312;9.790;2023-10-19T13:19:09;19.57;;;10.40;;
39890;SDS011;25564;53.312;9.790;2023-10-19T13:21:44;19.33;;;10.48;;
39890;SDS011;25564;53.312;9.790;2023-10-19T13:24:16;18.10;;;9.93;;
39890;SDS011;25564;53.312;9.790;2023-10-19T13:26:51;17.50;;;9.02;;
39890;SDS011;25564;53.312;9.790;2023-10-19T13:29:22;17.93;;;9.70;;
39890;SDS011;25564;53.312;9.790;2023-10-19T13:31:55;17.33;;;8.97;;
39890;SDS011;25564;53.312;9.790;2023-10-19T13:34:27;19.17;;;10.07;;
39890;SDS011;25564;53.312;9.790;2023-10-19T13:36:59;19.57;;;10.13;;
39890;SDS011;25564;53.312;9.790;2023-10-19T13:39:31;21.17;;;10.73;;
39890;SDS011;25564;53.312;9.790;2023-10-19T13:42:03;20.00;;;9.80;;
39890;SDS011;25564;53.312;9.790;2023-10-19T13:44:36;22.17;;;9.67;;
39890;SDS011;25564;53.312;9.790;2023-10-19T13:47:07;20.07;;;9.90;;
39890;SDS011;25564;53.312;9.790;2023-10-19T13:49:40;16.33;;;9.40;;
39890;SDS011;25564;53.312;9.790;2023-10-19T13:52:12;16.20;;;8.90;;
39890;SDS011;25564;53.312;9.790;2023-10-19T13:54:46;14.67;;;8.33;;
39890;SDS011;25564;53.312;9.790;2023-10-19T13:57:17;18.27;;;10.73;;
39890;SDS011;25564;53.312;9.790;2023-10-19T13:59:48;18.20;;;9.37;;
39890;SDS011;25564;53.312;9.790;2023-10-19T14:02:20;19.67;;;9.60;;
39890;SDS011;25564;53.312;9.790;2023-10-19T14:04:52;18.30;;;9.73;;
39890;SDS011;25564;53.312;9.790;2023-10-19T14:07:24;20.03;;;10.53;;
39890;SDS011;25564;53.312;9.790;2023-10-19T14:09:55;17.97;;;9.23;;
39890;SDS011;25564;53.312;9.790;2023-10-19T14:12:27;17.80;;;9.50;;
39890;SDS011;25564;53.312;9.790;2023-10-19T14:14:58;18.23;;;9.60;;
39890;SDS011;25564;53.312;9.790;2023-10-19T14:17:31;17.43;;;9.37;;
39890;SDS011;25564;53.312;9.790;2023-10-19T14:20:02;19.10;;;9.27;;
39890;SDS011;25564;53.312;9.790;2023-10-19T14:22:36;16.47;;;9.23;;
39890;SDS011;25564;53.312;9.790;2023-10-19T14:25:08;19.17;;;10.23;;
39890;SDS011;25564;53.312;9.790;2023-10-19T14:27:44;17.83;;;9.97;;
39890;SDS011;25564;53.312;9.790;2023-10-19T14:30:17;20.00;;;10.00;;
39890;SDS011;25564;53.312;9.790;2023-10-19T14:32:53;17.07;;;9.60;;
39890;SDS011;25564;53.312;9.790;2023-10-19T14:35:25;16.70;;;9.63;;
39890;SDS011;25564;53.312;9.790;2023-10-19T14:37:57;21.23;;;9.67;;
39890;SDS011;25564;53.312;9.790;2023-10-19T14:40:31;20.53;;;10.37;;
39890;SDS011;25564;53.312;9.790;2023-10-19T14:43:03;17.10;;;8.73;;
39890;SDS011;25564;53.312;9.790;2023-10-19T14:45:35;20.70;;;9.90;;
39890;SDS011;25564;53.312;9.790;2023-10-19T14:48:07;19.40;;;9.97;;
39890;SDS011;25564;53.312;9.790;2023-10-19T14:50:42;16.33;;;9.00;;
39890;SDS011;25564;53.312;9.790;2023-10-19T14:53:14;15.37;;;9.60;;
39890;SDS011;25564;53.312;9.790;2023-10-19T14:55:45;18.43;;;9.77;;
39890;SDS011;25564;53.312;9.790;2023-10-19T14:58:17;19.57;;;10.13;;
39890;SDS011;25564;53.312;9.790;2023-10-19T15:00:48;19.70;;;10.70;;
39890;SDS011;25564;53.312;9.790;2023-10-19T15:03:26;22.83;;;10.77;;
39890;SDS011;25564;53.312;9.790;2023-10-19T15:05:59;18.50;;;9.87;;
39890;SDS011;25564;53.312;9.790;2023-10-19T15:08:31;16.37;;;9.73;;
39890;SDS011;25564;53.312;9.790;2023-10-19T15:11:03;19.53;;;9.90;;
39890;SDS011;25564;53.312;9.790;2023-10-19T15:13:34;17.87;;;9.50;;
39890;SDS011;25564;53.312;9.790;2023-10-19T15:16:08;23.77;;;10.93;;
39890;SDS011;25564;53.312;9.790;2023-10-19T15:18:40;18.27;;;10.10;;
39890;SDS011;25564;53.312;9.790;2023-10-19T15:21:11;16.87;;;9.63;;
39890;SDS011;25564;53.312;9.790;2023-10-19T15:23:45;18.63;;;10.97;;
39890;SDS011;25564;53.312;9.790;2023-10-19T15:26:17;18.17;;;10.40;;
39890;SDS011;25564;53.312;9.790;2023-10-19T15:28:49;17.53;;;10.30;;
39890;SDS011;25564;53.312;9.790;2023-10-19T15:31:20;19.57;;;10.40;;